Terminal Aerodrome Forecast
Issued by NWS

Home | Current Version | Previous Version | Text Only | Print | Product List | Glossary On
Versions: 1 2 3 4 5 6 7 8 9 10 11 12 13 14 15 16 17 18 19
000
FTUS42 KMLB 240500 RRA
TAFISM
TAF
KISM 240544Z 2406/2506 18005KT P6SM FEW035 SCT250
     FM240800 19006KT P6SM OVC008
      TEMPO 2409/2413 5SM BR OVC005
     FM241400 20010KT P6SM BKN015
     FM241700 21012KT P6SM BKN035
     FM250100 20004KT P6SM SCT040 BKN250
      AMD NOT SKED TIL 241200=

USA.gov is the U.S. government's official web portal to all federal, state and local government web resources and services.